createdAt,value
2022-09-28T00:00:51.306Z,14.93
2022-09-28T00:06:02.056Z,15.63
2022-09-28T00:11:07.247Z,14.30
2022-09-28T00:16:14.093Z,13.83
2022-09-28T00:21:19.631Z,14.45
2022-09-28T00:26:22.458Z,14.45
2022-09-28T00:31:26.384Z,14.87
2022-09-28T00:36:32.073Z,14.00
2022-09-28T00:41:36.150Z,17.05
2022-09-28T00:46:38.875Z,16.40
2022-09-28T00:51:44.499Z,17.30
2022-09-28T00:56:49.349Z,15.27
2022-09-28T01:01:52.185Z,15.57
2022-09-28T01:06:58.244Z,16.93
2022-09-28T01:12:00.989Z,18.35
2022-09-28T01:17:09.565Z,14.02
2022-09-28T01:22:28.293Z,15.00
2022-09-28T01:27:36.130Z,17.50
2022-09-28T01:32:50.058Z,17.77
2022-09-28T01:37:57.924Z,15.47
2022-09-28T01:43:05.187Z,17.50
2022-09-28T01:48:09.645Z,16.42
2022-09-28T01:53:18.386Z,17.00
2022-09-28T01:58:28.086Z,18.37
2022-09-28T02:03:36.750Z,17.05
2022-09-28T02:08:44.044Z,17.35
2022-09-28T02:13:53.802Z,18.10
2022-09-28T02:18:56.914Z,17.20
2022-09-28T02:24:04.751Z,16.63
2022-09-28T02:29:09.067Z,15.93
2022-09-28T02:34:11.818Z,18.60
2022-09-28T02:39:15.130Z,15.73
2022-09-28T02:44:39.894Z,17.30
2022-09-28T02:49:49.591Z,16.70
2022-09-28T02:55:21.226Z,15.75
2022-09-28T03:00:25.906Z,17.60
2022-09-28T03:05:39.777Z,16.33
2022-09-28T03:10:47.657Z,15.20
2022-09-28T03:15:51.773Z,17.90
2022-09-28T03:20:54.555Z,16.93
2022-09-28T03:25:57.440Z,19.53
2022-09-28T03:31:01.568Z,17.55
2022-09-28T03:36:04.324Z,15.27
2022-09-28T03:41:07.626Z,18.63
2022-09-28T03:46:11.707Z,15.15
2022-09-28T03:51:15.032Z,13.98
2022-09-28T03:56:17.842Z,14.30
2022-09-28T04:01:22.012Z,19.17
2022-09-28T04:06:25.411Z,15.60
2022-09-28T04:11:34.909Z,14.70
2022-09-28T04:16:48.120Z,17.73
2022-09-28T04:21:51.958Z,19.45
2022-09-28T04:27:15.442Z,19.40
2022-09-28T04:32:19.621Z,18.80
2022-09-28T04:37:22.329Z,16.85
2022-09-28T04:42:25.049Z,15.73
2022-09-28T04:47:30.636Z,14.50
2022-09-28T04:52:33.361Z,18.70
2022-09-28T04:57:36.148Z,18.08
2022-09-28T05:02:40.349Z,17.87
2022-09-28T05:07:43.062Z,18.03
2022-09-28T05:12:45.747Z,18.55
2022-09-28T05:17:49.804Z,18.73
2022-09-28T05:22:52.535Z,18.73
2022-09-28T05:27:56.826Z,14.75
2022-09-28T05:33:01.005Z,15.95
2022-09-28T05:38:05.577Z,17.07
2022-09-28T05:43:08.399Z,18.38
2022-09-28T05:48:12.487Z,17.58
2022-09-28T05:53:15.167Z,17.03
2022-09-28T05:58:18.115Z,17.00
2022-09-28T06:03:22.264Z,16.33
2022-09-28T06:08:24.972Z,16.85
2022-09-28T06:13:28.329Z,17.07
2022-09-28T06:18:32.413Z,15.95
2022-09-28T06:23:35.105Z,18.20
2022-09-28T06:28:38.106Z,14.47
2022-09-28T06:33:42.694Z,15.88
2022-09-28T06:38:45.485Z,12.45
2022-09-28T06:43:48.807Z,17.13
2022-09-28T06:48:53.153Z,14.97
2022-09-28T06:53:56.568Z,15.02
2022-09-28T06:58:59.259Z,15.32
2022-09-28T07:04:03.511Z,14.43
2022-09-28T07:09:26.908Z,14.50
2022-09-28T07:14:46.496Z,14.02
2022-09-28T07:19:52.720Z,16.00
2022-09-28T07:24:55.477Z,14.07
2022-09-28T07:29:58.848Z,13.20
2022-09-28T07:35:08.082Z,13.23
2022-09-28T07:40:29.322Z,11.73
2022-09-28T07:45:36.103Z,15.65
2022-09-28T07:50:40.292Z,12.55
2022-09-28T07:55:43.046Z,13.93
2022-09-28T08:00:48.124Z,12.95
2022-09-28T08:05:52.267Z,14.05
2022-09-28T08:16:08.296Z,13.70
2022-09-28T08:21:30.005Z,16.05
2022-09-28T08:26:32.721Z,15.23
2022-09-28T08:31:36.029Z,12.87
2022-09-28T08:36:40.102Z,14.02
2022-09-28T08:41:49.800Z,13.82
2022-09-28T08:46:57.628Z,12.50
2022-09-28T08:52:06.447Z,17.27
2022-09-28T08:57:15.415Z,13.13
2022-09-28T09:02:24.010Z,12.77
2022-09-28T09:07:59.700Z,13.82
2022-09-28T09:13:19.163Z,13.93
2022-09-28T09:18:32.222Z,11.63
2022-09-28T09:23:40.044Z,11.30
2022-09-28T09:28:59.509Z,10.73
2022-09-28T09:34:23.657Z,12.88
2022-09-28T09:39:39.375Z,10.90
2022-09-28T09:45:03.162Z,13.30
2022-09-28T09:50:12.698Z,11.30
2022-09-28T09:55:30.120Z,9.27
2022-09-28T10:00:34.292Z,10.55
2022-09-28T10:05:38.196Z,10.93
2022-09-28T10:10:50.530Z,10.87
2022-09-28T10:15:53.276Z,11.27
2022-09-28T10:20:55.980Z,11.18
2022-09-28T10:26:06.866Z,9.52
2022-09-28T10:31:35.232Z,8.13
2022-09-28T10:36:50.891Z,8.18
2022-09-28T10:41:55.506Z,7.35
2022-09-28T10:47:01.160Z,7.83
2022-09-28T10:52:04.595Z,7.32
2022-09-28T10:57:28.269Z,7.97
2022-09-28T11:02:36.038Z,7.70
2022-09-28T11:07:47.199Z,9.57
2022-09-28T11:12:52.382Z,10.45
2022-09-28T11:17:55.293Z,9.23
2022-09-28T11:22:59.820Z,7.90
2022-09-28T11:28:05.664Z,7.80
2022-09-28T11:33:17.611Z,12.80
2022-09-28T11:38:33.525Z,7.40
2022-09-28T11:43:55.470Z,8.85
2022-09-28T11:49:03.738Z,6.35
2022-09-28T11:54:14.389Z,7.87
2022-09-28T11:59:23.483Z,7.60
2022-09-28T12:04:32.984Z,6.93
2022-09-28T12:09:43.444Z,9.43
2022-09-28T12:14:49.191Z,8.00
2022-09-28T12:19:56.699Z,6.30
2022-09-28T12:25:01.677Z,7.63
2022-09-28T12:30:14.178Z,6.90
2022-09-28T12:35:28.888Z,7.82
2022-09-28T12:40:38.774Z,6.85
2022-09-28T12:46:11.535Z,8.03
2022-09-28T12:51:29.812Z,8.33
2022-09-28T12:56:42.091Z,9.00
2022-09-28T13:02:14.803Z,11.52
2022-09-28T13:07:27.185Z,8.80
2022-09-28T13:12:38.768Z,7.93
2022-09-28T13:17:54.457Z,9.23
2022-09-28T13:23:07.476Z,9.50
2022-09-28T13:28:14.476Z,9.80
2022-09-28T13:33:26.846Z,8.60
2022-09-28T13:38:50.869Z,9.57
2022-09-28T13:44:20.937Z,7.83
2022-09-28T13:49:32.532Z,8.88
2022-09-28T13:54:53.558Z,9.93
2022-09-28T14:00:17.431Z,7.73
2022-09-28T14:05:48.473Z,10.13
2022-09-28T14:10:53.163Z,8.50
2022-09-28T14:16:20.876Z,8.53
2022-09-28T14:22:01.734Z,9.55
2022-09-28T14:27:29.772Z,9.43
2022-09-28T14:32:37.032Z,8.60
2022-09-28T14:38:00.272Z,8.13
2022-09-28T14:43:28.509Z,6.80
2022-09-28T14:48:44.933Z,7.32
2022-09-28T14:53:51.529Z,7.07
2022-09-28T14:58:57.887Z,7.70
2022-09-28T15:04:05.589Z,8.40
2022-09-28T15:09:31.349Z,7.60
2022-09-28T15:14:41.426Z,7.75
2022-09-28T15:19:52.276Z,10.18
2022-09-28T15:25:02.231Z,7.67
2022-09-28T15:30:22.902Z,8.10
2022-09-28T15:35:27.729Z,10.15
2022-09-28T15:40:34.645Z,8.93
2022-09-28T15:45:39.939Z,6.63
2022-09-28T15:50:56.958Z,4.10
2022-09-28T15:56:10.109Z,4.10
2022-09-28T16:01:27.087Z,3.80
2022-09-28T16:06:29.888Z,3.90
2022-09-28T16:11:38.899Z,6.18
2022-09-28T16:16:46.897Z,4.07
2022-09-28T16:21:53.423Z,4.57
2022-09-28T16:26:59.855Z,4.75
2022-09-28T16:32:35.094Z,4.00
2022-09-28T16:37:40.892Z,21.20
2022-09-28T16:42:49.049Z,15.88
2022-09-28T16:47:53.062Z,6.97
2022-09-28T16:53:19.782Z,42.63
2022-09-28T16:58:25.116Z,14.95
2022-09-28T17:03:28.940Z,17.30
2022-09-28T17:08:32.884Z,5.43
2022-09-28T17:13:37.441Z,5.43
2022-09-28T17:18:40.457Z,5.30
2022-09-28T17:23:43.177Z,5.85
2022-09-28T17:28:47.275Z,5.00
2022-09-28T17:33:50.088Z,5.38
2022-09-28T17:38:52.801Z,4.70
2022-09-28T17:43:57.158Z,5.07
2022-09-28T17:49:01.349Z,5.25
2022-09-28T17:54:04.700Z,9.85
2022-09-28T17:59:13.664Z,5.30
2022-09-28T18:04:39.847Z,5.40
2022-09-28T18:09:39.701Z,5.13
2022-09-28T18:14:43.745Z,5.30
2022-09-28T18:19:46.475Z,6.40
2022-09-28T18:24:49.197Z,6.72
2022-09-28T18:29:53.339Z,5.50
2022-09-28T18:34:56.041Z,5.93
2022-09-28T18:39:58.985Z,5.72
2022-09-28T18:45:03.087Z,6.28
2022-09-28T18:50:06.337Z,6.17
2022-09-28T18:55:09.834Z,5.73
2022-09-28T19:00:15.789Z,6.93
2022-09-28T19:05:19.104Z,7.75
2022-09-28T19:10:21.982Z,8.23
2022-09-28T19:15:26.231Z,7.35
2022-09-28T19:20:28.987Z,7.82
2022-09-28T19:25:31.676Z,9.73
2022-09-28T19:30:36.194Z,8.02
2022-09-28T19:35:49.852Z,8.23
2022-09-28T19:40:52.579Z,8.47
2022-09-28T19:45:56.930Z,7.90
2022-09-28T19:51:01.416Z,12.30
2022-09-28T19:56:05.522Z,9.60
2022-09-28T20:01:09.753Z,9.80
2022-09-28T20:06:17.104Z,12.55
2022-09-28T20:11:20.721Z,13.02
2022-09-28T20:16:25.424Z,12.90
2022-09-28T20:21:28.573Z,14.35
2022-09-28T20:26:35.691Z,11.57
2022-09-28T20:31:39.940Z,11.63
2022-09-28T20:36:43.135Z,12.27
2022-09-28T20:41:47.153Z,11.13
2022-09-28T20:46:52.628Z,13.35
2022-09-28T20:51:55.646Z,12.20
2022-09-28T20:56:58.365Z,13.93
2022-09-28T21:02:02.661Z,11.90
2022-09-28T21:07:05.636Z,13.20
2022-09-28T21:12:09.192Z,14.23
2022-09-28T21:17:13.298Z,17.05
2022-09-28T21:22:16.014Z,13.50
2022-09-28T21:27:18.703Z,13.30
2022-09-28T21:32:23.182Z,11.60
2022-09-28T21:37:25.906Z,12.55
2022-09-28T21:42:28.646Z,14.37
2022-09-28T21:47:32.728Z,12.85
2022-09-28T21:52:35.445Z,12.23
2022-09-28T21:57:38.152Z,13.80
2022-09-28T22:02:42.493Z,11.10
2022-09-28T22:07:45.265Z,12.70
2022-09-28T22:12:47.959Z,12.23
2022-09-28T22:17:52.055Z,11.37
2022-09-28T22:22:54.958Z,10.75
2022-09-28T22:27:57.695Z,12.52
2022-09-28T22:33:02.442Z,10.40
2022-09-28T22:38:05.192Z,11.63
2022-09-28T22:43:07.932Z,12.30
2022-09-28T22:48:12.826Z,10.87
2022-09-28T22:53:15.960Z,14.00
2022-09-28T22:58:18.741Z,15.07
2022-09-28T23:03:22.810Z,16.00
2022-09-28T23:08:25.661Z,15.33
2022-09-28T23:13:28.721Z,13.48
2022-09-28T23:18:34.513Z,14.07
2022-09-28T23:23:37.248Z,14.73
2022-09-28T23:28:40.009Z,15.35
2022-09-28T23:33:44.157Z,16.38
2022-09-28T23:38:46.869Z,14.57
2022-09-28T23:43:49.567Z,15.50
2022-09-28T23:48:53.856Z,14.63
2022-09-28T23:53:56.611Z,18.77
2022-09-28T23:58:59.544Z,15.63
